createdAt,value
2019-06-10T00:02:16.408Z,2.22
2019-06-10T00:04:46.827Z,2.27
2019-06-10T00:07:16.723Z,2.47
2019-06-10T00:09:47.482Z,2.70
2019-06-10T00:12:18.015Z,2.70
2019-06-10T00:14:48.377Z,2.90
2019-06-10T00:17:18.683Z,2.33
2019-06-10T00:19:51.179Z,2.65
2019-06-10T00:22:21.542Z,2.60
2019-06-10T00:24:52.509Z,2.37
2019-06-10T00:27:22.528Z,2.75
2019-06-10T00:29:52.952Z,2.65
2019-06-10T00:32:22.675Z,2.60
2019-06-10T00:34:53.872Z,2.98
2019-06-10T00:37:23.950Z,2.52
2019-06-10T00:39:53.956Z,2.30
2019-06-10T00:42:23.957Z,2.83
2019-06-10T00:44:54.386Z,2.77
2019-06-10T00:47:25.659Z,2.62
2019-06-10T00:49:56.035Z,2.47
2019-06-10T00:52:26.356Z,2.70
2019-06-10T00:54:56.299Z,2.62
2019-06-10T00:57:26.335Z,2.90
2019-06-10T00:59:56.409Z,2.90
2019-06-10T01:02:27.057Z,3.00
2019-06-10T01:04:57.672Z,2.62
2019-06-10T01:07:28.330Z,3.55
2019-06-10T01:09:57.939Z,2.92
2019-06-10T01:12:28.383Z,2.62
2019-06-10T01:14:57.981Z,3.02
2019-06-10T01:17:30.991Z,2.67
2019-06-10T01:20:01.500Z,3.00
2019-06-10T01:22:32.306Z,2.90
2019-06-10T01:25:02.887Z,3.40
2019-06-10T01:27:32.142Z,2.62
2019-06-10T01:30:09.626Z,2.17
2019-06-10T01:32:34.139Z,2.12
2019-06-10T01:35:03.865Z,2.20
2019-06-10T01:37:33.988Z,2.02
2019-06-10T01:40:04.368Z,2.22
2019-06-10T01:42:34.719Z,2.80
2019-06-10T01:45:04.814Z,2.37
2019-06-10T01:47:35.468Z,2.40
2019-06-10T01:50:07.009Z,2.20
2019-06-10T01:52:37.860Z,2.20
2019-06-10T01:55:11.848Z,2.67
2019-06-10T01:57:41.319Z,2.17
2019-06-10T02:00:17.165Z,2.40
2019-06-10T02:02:45.038Z,2.25
2019-06-10T02:05:16.688Z,2.10
2019-06-10T02:07:46.559Z,2.12
2019-06-10T02:10:18.687Z,2.33
2019-06-10T02:12:50.829Z,2.67
2019-06-10T02:15:22.614Z,2.17
2019-06-10T02:17:53.519Z,2.05
2019-06-10T02:20:24.220Z,2.00
2019-06-10T02:22:54.303Z,2.30
2019-06-10T02:25:24.869Z,2.22
2019-06-10T02:27:54.939Z,2.10
2019-06-10T02:30:40.375Z,2.37
2019-06-10T02:32:56.355Z,2.35
2019-06-10T02:35:38.074Z,2.27
2019-06-10T02:37:58.164Z,2.25
2019-06-10T02:40:31.980Z,2.12
2019-06-10T02:43:03.300Z,2.02
2019-06-10T02:45:37.121Z,2.10
2019-06-10T02:48:04.495Z,2.52
2019-06-10T02:51:06.491Z,2.30
2019-06-10T02:53:37.940Z,2.58
2019-06-10T02:56:09.249Z,2.15
2019-06-10T02:58:58.586Z,2.52
2019-06-10T03:01:32.887Z,2.15
2019-06-10T03:04:04.153Z,2.35
2019-06-10T03:06:39.193Z,2.50
2019-06-10T03:09:05.056Z,2.80
2019-06-10T03:11:37.060Z,2.80
2019-06-10T03:14:06.472Z,2.83
2019-06-10T03:16:44.620Z,2.70
2019-06-10T03:19:15.782Z,2.75
2019-06-10T03:21:46.639Z,2.35
2019-06-10T03:24:17.013Z,2.70
2019-06-10T03:26:49.087Z,2.75
2019-06-10T03:29:20.561Z,2.83
2019-06-10T03:31:55.325Z,3.90
2019-06-10T03:34:31.102Z,3.50
2019-06-10T03:36:54.640Z,3.00
2019-06-10T03:39:26.832Z,2.80
2019-06-10T03:41:56.002Z,3.02
2019-06-10T03:44:27.133Z,3.20
2019-06-10T03:46:57.982Z,3.25
2019-06-10T03:49:28.859Z,3.70
2019-06-10T03:51:59.055Z,3.30
2019-06-10T03:54:32.362Z,3.40
2019-06-10T03:57:02.757Z,3.27
2019-06-10T03:59:32.630Z,3.55
2019-06-10T04:02:02.748Z,3.22
2019-06-10T04:04:33.089Z,3.20
2019-06-10T04:07:03.763Z,3.27
2019-06-10T04:09:35.297Z,2.90
2019-06-10T04:12:05.658Z,2.80
2019-06-10T04:14:36.333Z,3.15
2019-06-10T04:17:06.085Z,3.00
2019-06-10T04:19:36.356Z,2.80
2019-06-10T04:22:06.424Z,2.98
2019-06-10T04:24:37.367Z,3.17
2019-06-10T04:27:07.679Z,2.80
2019-06-10T04:29:37.944Z,3.02
2019-06-10T04:32:07.671Z,3.52
2019-06-10T04:34:38.044Z,3.10
2019-06-10T04:37:07.662Z,3.10
2019-06-10T04:39:38.063Z,3.25
2019-06-10T04:42:23.184Z,3.42
2019-06-10T04:46:03.347Z,3.37
2019-06-10T04:48:32.609Z,3.20
2019-06-10T04:51:03.086Z,3.58
2019-06-10T04:53:33.531Z,3.72
2019-06-10T04:56:03.305Z,3.80
2019-06-10T04:58:33.812Z,3.27
2019-06-10T05:01:04.017Z,3.70
2019-06-10T05:03:33.342Z,3.67
2019-06-10T05:06:04.143Z,3.35
2019-06-10T05:08:34.644Z,3.45
2019-06-10T05:11:05.239Z,3.70
2019-06-10T05:13:35.735Z,3.85
2019-06-10T05:16:06.226Z,3.80
2019-06-10T05:18:36.897Z,3.27
2019-06-10T05:21:06.931Z,3.65
2019-06-10T05:23:38.131Z,3.27
2019-06-10T05:26:08.810Z,2.98
2019-06-10T05:28:39.137Z,3.33
2019-06-10T05:31:09.538Z,3.75
2019-06-10T05:33:42.348Z,3.80
2019-06-10T05:36:13.067Z,3.77
2019-06-10T05:38:43.659Z,2.83
2019-06-10T05:41:13.806Z,3.50
2019-06-10T05:43:43.860Z,3.30
2019-06-10T05:46:13.961Z,3.08
2019-06-10T05:48:44.685Z,3.27
2019-06-10T05:51:14.692Z,3.15
2019-06-10T05:53:46.403Z,3.12
2019-06-10T05:56:16.779Z,3.22
2019-06-10T05:58:46.807Z,3.45
2019-06-10T06:01:16.726Z,3.55
2019-06-10T06:03:46.836Z,3.33
2019-06-10T06:06:17.153Z,3.20
2019-06-10T06:08:47.208Z,3.02
2019-06-10T06:11:17.529Z,3.70
2019-06-10T06:13:48.687Z,3.33
2019-06-10T06:16:18.798Z,3.20
2019-06-10T06:18:48.452Z,3.30
2019-06-10T06:21:32.413Z,3.00
2019-06-10T06:24:03.789Z,3.37
2019-06-10T06:26:37.415Z,2.95
2019-06-10T06:29:03.990Z,3.52
2019-06-10T06:31:36.078Z,3.30
2019-06-10T06:34:06.085Z,3.10
2019-06-10T06:36:37.909Z,3.60
2019-06-10T06:39:09.086Z,2.58
2019-06-10T06:41:39.121Z,3.10
2019-06-10T06:44:12.710Z,2.75
2019-06-10T06:46:43.049Z,2.12
2019-06-10T06:49:13.668Z,2.70
2019-06-10T06:51:54.650Z,2.60
2019-06-10T06:54:16.546Z,2.35
2019-06-10T06:56:46.969Z,2.20
2019-06-10T06:59:17.347Z,2.77
2019-06-10T07:01:48.062Z,3.02
2019-06-10T07:04:18.793Z,2.80
2019-06-10T07:06:53.312Z,2.58
2019-06-10T07:09:22.819Z,3.00
2019-06-10T07:11:53.758Z,2.55
2019-06-10T07:14:25.688Z,3.10
2019-06-10T07:16:55.415Z,3.45
2019-06-10T07:19:25.088Z,3.75
2019-06-10T07:22:08.507Z,4.20
2019-06-10T07:24:27.915Z,4.62
2019-06-10T07:26:58.035Z,4.35
2019-06-10T07:29:28.066Z,4.55
2019-06-10T07:31:58.094Z,4.45
2019-06-10T07:34:28.203Z,4.55
2019-06-10T07:36:58.724Z,4.28
2019-06-10T07:39:29.151Z,4.42
2019-06-10T07:41:59.629Z,4.67
2019-06-10T07:44:30.005Z,4.42
2019-06-10T07:47:02.538Z,4.83
2019-06-10T07:49:33.772Z,5.85
2019-06-10T07:52:15.628Z,5.28
2019-06-10T07:54:37.549Z,5.00
2019-06-10T07:57:07.800Z,4.95
2019-06-10T07:59:39.462Z,5.28
2019-06-10T08:02:09.049Z,5.05
2019-06-10T08:04:39.981Z,4.97
2019-06-10T08:07:12.487Z,4.55
2019-06-10T08:09:44.297Z,3.65
2019-06-10T08:12:14.708Z,2.98
2019-06-10T08:14:45.831Z,3.35
2019-06-10T08:17:16.627Z,2.95
2019-06-10T08:19:50.516Z,2.98
2019-06-10T08:22:31.297Z,3.02
2019-06-10T08:24:52.316Z,2.95
2019-06-10T08:27:22.738Z,2.80
2019-06-10T08:30:13.655Z,3.12
2019-06-10T08:32:24.652Z,4.67
2019-06-10T08:34:54.998Z,3.35
2019-06-10T08:37:24.951Z,2.98
2019-06-10T08:39:55.322Z,3.22
2019-06-10T08:42:26.073Z,3.37
2019-06-10T08:44:59.701Z,3.00
2019-06-10T08:47:28.299Z,3.10
2019-06-10T08:49:58.688Z,2.80
2019-06-10T08:52:27.953Z,3.00
2019-06-10T08:54:57.976Z,2.55
2019-06-10T08:57:28.866Z,2.90
2019-06-10T08:59:59.310Z,2.67
2019-06-10T09:02:29.353Z,2.80
2019-06-10T09:04:59.367Z,2.87
2019-06-10T09:07:32.171Z,2.50
2019-06-10T09:10:03.003Z,2.67
2019-06-10T09:12:36.541Z,2.50
2019-06-10T09:15:04.647Z,2.58
2019-06-10T09:17:35.085Z,2.40
2019-06-10T09:20:06.903Z,2.50
2019-06-10T09:22:37.277Z,2.50
2019-06-10T09:25:12.268Z,2.67
2019-06-10T09:27:42.590Z,2.72
2019-06-10T09:30:15.616Z,2.80
2019-06-10T09:32:48.472Z,2.67
2019-06-10T09:35:17.985Z,2.52
2019-06-10T09:37:50.881Z,2.50
2019-06-10T09:40:22.927Z,2.40
2019-06-10T09:42:55.051Z,2.20
2019-06-10T09:45:24.945Z,2.25
2019-06-10T09:47:59.841Z,2.70
2019-06-10T09:50:41.202Z,2.47
2019-06-10T09:53:13.900Z,2.67
2019-06-10T09:55:46.298Z,2.25
2019-06-10T09:58:15.611Z,2.30
2019-06-10T10:00:50.842Z,2.30
2019-06-10T10:03:23.233Z,2.35
2019-06-10T10:05:59.348Z,2.37
2019-06-10T10:08:24.321Z,3.70
2019-06-10T10:10:58.613Z,2.60
2019-06-10T10:13:26.726Z,3.05
2019-06-10T10:15:56.759Z,2.87
2019-06-10T10:18:26.456Z,2.37
2019-06-10T10:20:59.116Z,2.17
2019-06-10T10:23:27.595Z,2.58
2019-06-10T10:25:57.626Z,2.40
2019-06-10T10:28:27.307Z,2.47
2019-06-10T10:30:58.170Z,2.22
2019-06-10T10:33:30.072Z,2.25
2019-06-10T10:36:02.866Z,2.90
2019-06-10T10:38:34.613Z,2.42
2019-06-10T10:41:05.084Z,2.65
2019-06-10T10:43:37.706Z,2.50
2019-06-10T10:46:07.691Z,2.47
2019-06-10T10:48:38.017Z,2.52
2019-06-10T10:51:08.459Z,2.22
2019-06-10T10:53:38.704Z,2.80
2019-06-10T10:56:08.619Z,2.60
2019-06-10T10:58:39.011Z,2.42
2019-06-10T11:01:09.035Z,2.70
2019-06-10T11:03:38.636Z,2.67
2019-06-10T11:06:08.568Z,2.60
2019-06-10T11:08:38.877Z,2.60
2019-06-10T11:11:13.520Z,2.67
2019-06-10T11:13:43.255Z,2.60
2019-06-10T11:16:13.739Z,2.72
2019-06-10T11:18:45.099Z,2.70
2019-06-10T11:21:15.413Z,4.15
2019-06-10T11:23:46.262Z,2.85
2019-06-10T11:26:16.107Z,4.05
2019-06-10T11:28:47.419Z,8.48
2019-06-10T11:31:17.212Z,5.83
2019-06-10T11:33:48.714Z,3.87
2019-06-10T11:36:18.883Z,2.70
2019-06-10T11:38:50.473Z,3.35
2019-06-10T11:41:23.707Z,3.00
2019-06-10T11:43:56.071Z,3.10
2019-06-10T11:46:24.995Z,2.37
2019-06-10T11:48:57.230Z,3.02
2019-06-10T11:51:26.680Z,3.00
2019-06-10T11:53:57.676Z,2.90
2019-06-10T11:56:28.930Z,3.15
2019-06-10T11:59:00.367Z,3.00
2019-06-10T12:01:30.945Z,2.90
2019-06-10T12:04:04.167Z,3.30
2019-06-10T12:06:34.084Z,3.37
2019-06-10T12:09:06.333Z,3.83
2019-06-10T12:11:37.071Z,3.80
2019-06-10T12:14:07.779Z,3.87
2019-06-10T12:19:09.248Z,3.65
2019-06-10T12:21:38.803Z,3.90
2019-06-10T12:24:08.493Z,3.80
2019-06-10T12:26:38.860Z,4.20
2019-06-10T12:29:12.250Z,3.90
2019-06-10T12:31:42.788Z,4.35
2019-06-10T12:34:12.621Z,4.60
2019-06-10T12:36:43.565Z,4.30
2019-06-10T12:39:17.036Z,4.45
2019-06-10T12:41:45.547Z,4.33
2019-06-10T12:44:16.231Z,4.87
2019-06-10T12:46:46.412Z,4.58
2019-06-10T12:49:18.401Z,4.00
2019-06-10T12:51:48.574Z,4.05
2019-06-10T12:54:19.335Z,4.80
2019-06-10T12:56:49.659Z,4.25
2019-06-10T12:59:18.945Z,4.12
2019-06-10T13:01:49.037Z,4.70
2019-06-10T13:04:19.534Z,4.47
2019-06-10T13:06:52.579Z,5.17
2019-06-10T13:09:23.624Z,4.95
2019-06-10T13:11:55.674Z,4.95
2019-06-10T13:14:25.889Z,4.97
2019-06-10T13:16:55.956Z,4.60
2019-06-10T13:19:26.041Z,4.70
2019-06-10T13:21:57.180Z,4.83
2019-06-10T13:24:28.564Z,5.25
2019-06-10T13:26:58.743Z,5.22
2019-06-10T13:29:29.286Z,5.70
2019-06-10T13:32:00.696Z,5.87
2019-06-10T13:34:32.480Z,6.20
2019-06-10T13:37:05.198Z,6.87
2019-06-10T13:39:35.087Z,7.95
2019-06-10T13:42:08.084Z,7.08
2019-06-10T13:44:37.693Z,7.25
2019-06-10T13:47:10.566Z,8.18
2019-06-10T13:49:42.679Z,8.50
2019-06-10T13:52:16.671Z,8.43
2019-06-10T13:54:46.189Z,9.18
2019-06-10T13:57:16.568Z,7.85
2019-06-10T13:59:46.832Z,10.72
2019-06-10T14:02:17.265Z,10.15
2019-06-10T14:05:10.306Z,9.23
2019-06-10T14:07:38.940Z,8.45
2019-06-10T14:10:14.697Z,9.20
2019-06-10T14:12:43.268Z,10.43
2019-06-10T14:15:16.992Z,10.90
2019-06-10T14:17:45.620Z,9.95
2019-06-10T14:20:15.697Z,10.95
2019-06-10T14:22:46.368Z,10.30
2019-06-10T14:25:17.221Z,10.20
2019-06-10T14:27:47.717Z,9.70
2019-06-10T14:30:17.512Z,10.13
2019-06-10T14:32:47.960Z,9.30
2019-06-10T14:35:18.082Z,9.10
2019-06-10T14:37:48.031Z,8.15
2019-06-10T14:40:20.942Z,8.90
2019-06-10T14:42:52.359Z,9.13
2019-06-10T14:45:23.137Z,8.75
2019-06-10T14:47:54.393Z,7.53
2019-06-10T14:50:25.523Z,7.22
2019-06-10T14:52:55.011Z,7.62
2019-06-10T14:55:25.872Z,8.45
2019-06-10T14:57:55.904Z,8.13
2019-06-10T15:00:25.733Z,10.25
2019-06-10T15:02:55.942Z,10.20
2019-06-10T15:05:27.106Z,9.65
2019-06-10T15:07:56.805Z,9.48
2019-06-10T15:10:27.283Z,8.75
2019-06-10T15:12:57.627Z,8.63
2019-06-10T15:15:28.160Z,9.48
2019-06-10T15:17:58.670Z,9.35
2019-06-10T15:20:28.958Z,8.40
2019-06-10T15:22:59.056Z,9.20
2019-06-10T15:25:43.783Z,9.25
2019-06-10T15:28:03.253Z,9.85
2019-06-10T15:30:34.403Z,8.68
2019-06-10T15:33:04.960Z,8.50
2019-06-10T15:35:35.679Z,8.13
2019-06-10T15:38:05.400Z,9.08
2019-06-10T15:40:35.844Z,8.35
2019-06-10T15:43:06.341Z,7.80
2019-06-10T15:45:37.029Z,7.17
2019-06-10T15:48:07.167Z,7.30
2019-06-10T15:50:37.673Z,6.87
2019-06-10T15:53:08.493Z,7.28
2019-06-10T15:56:05.787Z,7.25
2019-06-10T15:58:13.803Z,7.12
2019-06-10T16:00:42.698Z,7.08
2019-06-10T16:03:15.863Z,7.33
2019-06-10T16:05:45.226Z,8.48
2019-06-10T16:08:16.870Z,8.85
2019-06-10T16:10:47.895Z,7.22
2019-06-10T16:13:18.621Z,7.40
2019-06-10T16:15:48.552Z,7.20
2019-06-10T16:18:20.083Z,7.97
2019-06-10T16:20:52.778Z,7.92
2019-06-10T16:23:25.043Z,8.18
2019-06-10T16:25:55.415Z,9.40
2019-06-10T16:28:26.513Z,9.53
2019-06-10T16:30:56.812Z,11.50
2019-06-10T16:33:28.036Z,11.85
2019-06-10T16:35:58.400Z,11.10
2019-06-10T16:38:28.502Z,11.53
2019-06-10T16:40:58.215Z,11.43
2019-06-10T16:43:28.330Z,12.73
2019-06-10T16:45:58.082Z,13.68
2019-06-10T16:48:29.749Z,12.85
2019-06-10T16:50:59.974Z,12.43
2019-06-10T16:53:32.340Z,13.43
2019-06-10T16:56:03.297Z,13.03
2019-06-10T16:58:34.172Z,13.10
2019-06-10T17:01:05.336Z,13.43
2019-06-10T17:03:35.455Z,11.33
2019-06-10T17:06:05.994Z,11.75
2019-06-10T17:08:36.120Z,11.38
2019-06-10T17:11:06.541Z,11.78
2019-06-10T17:13:36.261Z,11.75
2019-06-10T17:16:06.371Z,12.07
2019-06-10T17:18:36.485Z,13.65
2019-06-10T17:21:07.471Z,14.03
2019-06-10T17:23:39.177Z,12.33
2019-06-10T17:26:09.451Z,12.30
2019-06-10T17:28:42.642Z,14.00
2019-06-10T17:31:12.235Z,14.68
2019-06-10T17:33:42.690Z,13.28
2019-06-10T17:36:13.335Z,12.58
2019-06-10T17:39:03.046Z,13.00
2019-06-10T17:41:35.234Z,11.73
2019-06-10T17:44:05.844Z,11.50
2019-06-10T17:46:35.682Z,9.83
2019-06-10T17:49:05.607Z,11.70
2019-06-10T17:51:35.865Z,12.95
2019-06-10T17:54:06.234Z,14.80
2019-06-10T17:56:36.586Z,14.87
2019-06-10T17:59:07.082Z,13.50
2019-06-10T18:01:37.860Z,14.50
2019-06-10T18:04:08.451Z,15.10
2019-06-10T18:06:38.765Z,16.42
2019-06-10T18:09:08.696Z,18.20
2019-06-10T18:11:39.339Z,20.17
2019-06-10T18:14:09.093Z,19.17
2019-06-10T18:16:39.941Z,18.25
2019-06-10T18:19:10.279Z,17.65
2019-06-10T18:21:41.595Z,16.07
2019-06-10T18:24:12.732Z,17.77
2019-06-10T18:26:43.308Z,17.42
2019-06-10T18:29:14.247Z,19.57
2019-06-10T18:31:44.437Z,17.27
2019-06-10T18:34:14.978Z,14.93
2019-06-10T18:36:45.532Z,16.35
2019-06-10T18:39:15.214Z,17.25
2019-06-10T18:41:46.284Z,17.20
2019-06-10T18:44:23.048Z,18.75
2019-06-10T18:46:48.896Z,19.17
2019-06-10T18:49:19.111Z,19.85
2019-06-10T18:51:49.908Z,19.92
2019-06-10T18:54:22.576Z,18.67
2019-06-10T18:56:53.247Z,16.57
2019-06-10T18:59:23.719Z,15.72
2019-06-10T19:01:54.511Z,14.45
2019-06-10T19:04:25.506Z,12.70
2019-06-10T19:06:56.039Z,12.00
2019-06-10T19:09:26.677Z,10.93
2019-06-10T19:11:56.853Z,7.40
2019-06-10T19:14:27.908Z,4.62
2019-06-10T19:16:58.706Z,3.77
2019-06-10T19:19:29.905Z,3.90
2019-06-10T19:22:06.192Z,3.70
2019-06-10T19:24:35.855Z,3.20
2019-06-10T19:27:05.601Z,7.30
2019-06-10T19:29:44.166Z,15.45
2019-06-10T19:32:08.156Z,18.07
2019-06-10T19:34:39.454Z,19.82
2019-06-10T19:37:12.746Z,20.77
2019-06-10T19:39:49.408Z,18.85
2019-06-10T19:42:13.791Z,24.45
2019-06-10T19:44:45.944Z,25.40
2019-06-10T19:47:16.556Z,23.67
2019-06-10T19:49:47.264Z,24.27
2019-06-10T19:52:18.018Z,24.77
2019-06-10T19:54:48.109Z,18.80
2019-06-10T19:57:18.744Z,16.17
2019-06-10T20:00:05.060Z,15.20
2019-06-10T20:02:22.504Z,14.38
2019-06-10T20:04:53.227Z,16.67
2019-06-10T20:07:24.127Z,16.87
2019-06-10T20:09:54.573Z,22.13
2019-06-10T20:12:24.681Z,24.12
2019-06-10T20:14:56.905Z,27.17
2019-06-10T20:17:27.437Z,35.80
2019-06-10T20:19:57.636Z,33.98
2019-06-10T20:22:28.150Z,31.73
2019-06-10T20:24:59.277Z,35.10
2019-06-10T20:27:30.015Z,34.65
2019-06-10T20:30:10.051Z,28.62
2019-06-10T20:32:33.643Z,21.27
2019-06-10T20:35:04.478Z,24.47
2019-06-10T20:37:34.784Z,26.52
2019-06-10T20:40:05.385Z,25.68
2019-06-10T20:42:35.742Z,23.02
2019-06-10T20:45:06.355Z,21.20
2019-06-10T20:47:37.689Z,19.07
2019-06-10T20:50:08.978Z,15.43
2019-06-10T20:52:39.955Z,15.90
2019-06-10T20:55:12.568Z,11.33
2019-06-10T20:57:56.246Z,6.97
2019-06-10T21:00:22.594Z,7.85
2019-06-10T21:02:50.355Z,7.80
2019-06-10T21:05:22.323Z,7.40
2019-06-10T21:07:54.068Z,7.35
2019-06-10T21:10:33.582Z,6.35
2019-06-10T21:13:03.983Z,6.65
2019-06-10T21:15:34.905Z,6.67
2019-06-10T21:18:05.276Z,7.35
2019-06-10T21:20:36.231Z,7.90
2019-06-10T21:23:07.023Z,7.45
2019-06-10T21:25:36.698Z,6.37
2019-06-10T21:28:06.742Z,6.22
2019-06-10T21:30:42.120Z,6.58
2019-06-10T21:33:09.251Z,6.78
2019-06-10T21:35:42.469Z,8.03
2019-06-10T21:38:12.726Z,10.20
2019-06-10T21:40:44.909Z,9.80
2019-06-10T21:43:15.254Z,10.13
2019-06-10T21:45:51.297Z,10.10
2019-06-10T21:48:18.537Z,10.50
2019-06-10T21:50:50.890Z,10.05
2019-06-10T21:53:22.314Z,6.62
2019-06-10T21:55:53.982Z,5.00
2019-06-10T21:58:24.883Z,5.45
2019-06-10T22:01:08.464Z,4.78
2019-06-10T22:03:26.810Z,4.22
2019-06-10T22:05:56.680Z,4.55
2019-06-10T22:08:26.895Z,4.67
2019-06-10T22:10:57.399Z,4.65
2019-06-10T22:13:27.790Z,4.60
2019-06-10T22:15:58.015Z,4.58
2019-06-10T22:18:28.944Z,4.05
2019-06-10T22:21:02.543Z,4.62
2019-06-10T22:23:33.072Z,4.60
2019-06-10T22:26:03.741Z,5.03
2019-06-10T22:28:34.125Z,5.50
2019-06-10T22:31:16.092Z,5.70
2019-06-10T22:33:36.810Z,5.42
2019-06-10T22:36:06.557Z,6.03
2019-06-10T22:38:36.616Z,6.20
2019-06-10T22:41:07.502Z,7.08
2019-06-10T22:43:37.652Z,7.50
2019-06-10T22:46:08.211Z,7.70
2019-06-10T22:48:38.048Z,7.85
2019-06-10T22:51:08.503Z,7.62
2019-06-10T22:53:38.539Z,7.12
2019-06-10T22:56:08.697Z,7.75
2019-06-10T22:58:38.755Z,6.60
2019-06-10T23:01:09.488Z,7.00
2019-06-10T23:03:39.659Z,7.35
2019-06-10T23:06:12.476Z,6.10
2019-06-10T23:08:43.803Z,5.03
2019-06-10T23:11:13.613Z,5.70
2019-06-10T23:13:43.056Z,6.10
2019-06-10T23:16:13.224Z,6.15
2019-06-10T23:18:43.329Z,5.70
2019-06-10T23:21:13.413Z,6.53
2019-06-10T23:23:43.675Z,5.55
2019-06-10T23:26:14.130Z,5.35
2019-06-10T23:28:44.594Z,4.85
2019-06-10T23:31:15.078Z,4.78
2019-06-10T23:33:44.883Z,4.37
2019-06-10T23:36:15.474Z,4.85
2019-06-10T23:38:45.631Z,5.25
2019-06-10T23:41:16.139Z,5.47
2019-06-10T23:43:46.378Z,5.10
2019-06-10T23:46:16.517Z,6.03
2019-06-10T23:48:46.924Z,5.85
2019-06-10T23:51:17.864Z,6.78
2019-06-10T23:53:48.297Z,6.60
2019-06-10T23:56:17.661Z,6.22
2019-06-10T23:58:47.396Z,6.37
